sensor_id;sensor_type;location;lat;lon;timestamp;P1;durP1;ratioP1;P2;durP2;ratioP2
42430;SDS011;71905;47.466;19.024;2023-10-19T00:00:55;13.80;;;9.13;;
42430;SDS011;71905;47.466;19.024;2023-10-19T00:03:24;15.77;;;9.88;;
42430;SDS011;71905;47.466;19.024;2023-10-19T00:05:52;16.25;;;10.60;;
42430;SDS011;71905;47.466;19.024;2023-10-19T00:08:23;13.85;;;9.38;;
42430;SDS011;71905;47.466;19.024;2023-10-19T00:10:51;15.73;;;10.38;;
42430;SDS011;71905;47.466;19.024;2023-10-19T00:13:23;19.10;;;11.10;;
42430;SDS011;71905;47.466;19.024;2023-10-19T00:15:50;18.77;;;11.38;;
42430;SDS011;71905;47.466;19.024;2023-10-19T00:18:20;15.05;;;9.98;;
42430;SDS011;71905;47.466;19.024;2023-10-19T00:20:49;16.40;;;9.60;;
42430;SDS011;71905;47.466;19.024;2023-10-19T00:23:25;19.30;;;10.52;;
42430;SDS011;71905;47.466;19.024;2023-10-19T00:25:55;15.63;;;10.07;;
42430;SDS011;71905;47.466;19.024;2023-10-19T00:28:25;15.38;;;10.27;;
42430;SDS011;71905;47.466;19.024;2023-10-19T00:30:54;17.60;;;10.70;;
42430;SDS011;71905;47.466;19.024;2023-10-19T00:33:29;15.57;;;9.77;;
42430;SDS011;71905;47.466;19.024;2023-10-19T00:35:59;16.00;;;10.05;;
42430;SDS011;71905;47.466;19.024;2023-10-19T00:38:35;14.25;;;9.85;;
42430;SDS011;71905;47.466;19.024;2023-10-19T00:41:09;18.50;;;11.23;;
42430;SDS011;71905;47.466;19.024;2023-10-19T00:43:48;16.58;;;10.30;;
42430;SDS011;71905;47.466;19.024;2023-10-19T00:46:17;13.60;;;9.50;;
42430;SDS011;71905;47.466;19.024;2023-10-19T00:48:53;15.73;;;9.70;;
42430;SDS011;71905;47.466;19.024;2023-10-19T00:51:23;18.80;;;11.48;;
42430;SDS011;71905;47.466;19.024;2023-10-19T00:54:05;17.80;;;9.82;;
42430;SDS011;71905;47.466;19.024;2023-10-19T00:56:37;20.80;;;11.27;;
42430;SDS011;71905;47.466;19.024;2023-10-19T00:59:09;15.65;;;10.30;;
42430;SDS011;71905;47.466;19.024;2023-10-19T01:01:41;14.63;;;10.35;;
42430;SDS011;71905;47.466;19.024;2023-10-19T01:04:12;16.60;;;11.70;;
42430;SDS011;71905;47.466;19.024;2023-10-19T01:06:43;19.33;;;11.07;;
42430;SDS011;71905;47.466;19.024;2023-10-19T01:09:26;16.77;;;11.75;;
42430;SDS011;71905;47.466;19.024;2023-10-19T01:11:55;16.92;;;11.40;;
42430;SDS011;71905;47.466;19.024;2023-10-19T01:14:29;18.10;;;13.45;;
42430;SDS011;71905;47.466;19.024;2023-10-19T01:16:59;19.35;;;12.73;;
42430;SDS011;71905;47.466;19.024;2023-10-19T01:19:33;15.60;;;11.60;;
42430;SDS011;71905;47.466;19.024;2023-10-19T01:22:01;23.60;;;14.98;;
42430;SDS011;71905;47.466;19.024;2023-10-19T01:24:32;20.63;;;13.45;;
42430;SDS011;71905;47.466;19.024;2023-10-19T01:27:06;15.82;;;11.63;;
42430;SDS011;71905;47.466;19.024;2023-10-19T01:29:36;19.92;;;14.63;;
42430;SDS011;71905;47.466;19.024;2023-10-19T01:32:06;18.58;;;13.88;;
42430;SDS011;71905;47.466;19.024;2023-10-19T01:34:35;21.23;;;15.77;;
42430;SDS011;71905;47.466;19.024;2023-10-19T01:37:03;24.50;;;15.75;;
42430;SDS011;71905;47.466;19.024;2023-10-19T01:39:32;21.67;;;16.63;;
42430;SDS011;71905;47.466;19.024;2023-10-19T01:42:03;24.00;;;16.15;;
42430;SDS011;71905;47.466;19.024;2023-10-19T01:44:31;22.20;;;15.13;;
42430;SDS011;71905;47.466;19.024;2023-10-19T01:47:02;22.35;;;16.00;;
42430;SDS011;71905;47.466;19.024;2023-10-19T01:49:33;23.25;;;17.17;;
42430;SDS011;71905;47.466;19.024;2023-10-19T01:52:01;23.80;;;18.33;;
42430;SDS011;71905;47.466;19.024;2023-10-19T01:54:28;25.10;;;18.92;;
42430;SDS011;71905;47.466;19.024;2023-10-19T01:56:58;26.27;;;18.20;;
42430;SDS011;71905;47.466;19.024;2023-10-19T01:59:27;24.35;;;18.33;;
42430;SDS011;71905;47.466;19.024;2023-10-19T02:01:58;24.92;;;17.67;;
42430;SDS011;71905;47.466;19.024;2023-10-19T02:04:25;31.33;;;21.60;;
42430;SDS011;71905;47.466;19.024;2023-10-19T02:06:53;25.45;;;19.83;;
42430;SDS011;71905;47.466;19.024;2023-10-19T02:09:20;27.92;;;21.02;;
42430;SDS011;71905;47.466;19.024;2023-10-19T02:11:53;31.05;;;22.30;;
42430;SDS011;71905;47.466;19.024;2023-10-19T02:14:26;29.02;;;22.13;;
42430;SDS011;71905;47.466;19.024;2023-10-19T02:16:57;27.88;;;20.65;;
42430;SDS011;71905;47.466;19.024;2023-10-19T02:19:27;34.22;;;23.65;;
42430;SDS011;71905;47.466;19.024;2023-10-19T02:21:58;31.33;;;24.42;;
42430;SDS011;71905;47.466;19.024;2023-10-19T02:24:26;33.35;;;23.58;;
42430;SDS011;71905;47.466;19.024;2023-10-19T02:26:55;30.85;;;21.95;;
42430;SDS011;71905;47.466;19.024;2023-10-19T02:29:25;40.22;;;26.08;;
42430;SDS011;71905;47.466;19.024;2023-10-19T02:31:54;40.63;;;28.48;;
42430;SDS011;71905;47.466;19.024;2023-10-19T02:34:23;39.40;;;27.27;;
42430;SDS011;71905;47.466;19.024;2023-10-19T02:36:52;36.17;;;25.65;;
42430;SDS011;71905;47.466;19.024;2023-10-19T02:39:20;40.85;;;28.83;;
42430;SDS011;71905;47.466;19.024;2023-10-19T02:41:54;45.60;;;29.98;;
42430;SDS011;71905;47.466;19.024;2023-10-19T02:44:23;39.72;;;29.15;;
42430;SDS011;71905;47.466;19.024;2023-10-19T02:46:53;43.03;;;31.23;;
42430;SDS011;71905;47.466;19.024;2023-10-19T02:49:27;41.65;;;28.80;;
42430;SDS011;71905;47.466;19.024;2023-10-19T02:51:57;38.63;;;28.00;;
42430;SDS011;71905;47.466;19.024;2023-10-19T02:54:29;41.05;;;30.00;;
42430;SDS011;71905;47.466;19.024;2023-10-19T02:57:00;41.42;;;29.15;;
42430;SDS011;71905;47.466;19.024;2023-10-19T02:59:29;44.60;;;31.00;;
42430;SDS011;71905;47.466;19.024;2023-10-19T03:01:59;44.72;;;32.53;;
42430;SDS011;71905;47.466;19.024;2023-10-19T03:04:33;40.22;;;29.63;;
42430;SDS011;71905;47.466;19.024;2023-10-19T03:07:02;45.15;;;30.98;;
42430;SDS011;71905;47.466;19.024;2023-10-19T03:09:30;42.30;;;31.23;;
42430;SDS011;71905;47.466;19.024;2023-10-19T03:12:03;42.35;;;30.80;;
42430;SDS011;71905;47.466;19.024;2023-10-19T03:14:33;41.55;;;30.55;;
42430;SDS011;71905;47.466;19.024;2023-10-19T03:17:01;41.53;;;31.80;;
42430;SDS011;71905;47.466;19.024;2023-10-19T03:19:29;42.47;;;30.92;;
42430;SDS011;71905;47.466;19.024;2023-10-19T03:21:57;40.20;;;29.52;;
42430;SDS011;71905;47.466;19.024;2023-10-19T03:24:27;43.08;;;31.42;;
42430;SDS011;71905;47.466;19.024;2023-10-19T03:27:03;46.08;;;31.38;;
42430;SDS011;71905;47.466;19.024;2023-10-19T03:29:40;47.08;;;33.45;;
42430;SDS011;71905;47.466;19.024;2023-10-19T03:32:12;46.40;;;33.33;;
42430;SDS011;71905;47.466;19.024;2023-10-19T03:34:40;47.15;;;34.72;;
42430;SDS011;71905;47.466;19.024;2023-10-19T03:37:13;45.05;;;32.88;;
42430;SDS011;71905;47.466;19.024;2023-10-19T03:39:43;43.95;;;32.90;;
42430;SDS011;71905;47.466;19.024;2023-10-19T03:42:12;48.65;;;34.63;;
42430;SDS011;71905;47.466;19.024;2023-10-19T03:44:42;41.22;;;31.63;;
42430;SDS011;71905;47.466;19.024;2023-10-19T03:47:17;47.17;;;32.72;;
42430;SDS011;71905;47.466;19.024;2023-10-19T03:49:47;43.95;;;32.58;;
42430;SDS011;71905;47.466;19.024;2023-10-19T03:52:17;47.00;;;32.40;;
42430;SDS011;71905;47.466;19.024;2023-10-19T03:54:48;40.17;;;28.98;;
42430;SDS011;71905;47.466;19.024;2023-10-19T03:57:17;44.45;;;31.48;;
42430;SDS011;71905;47.466;19.024;2023-10-19T03:59:53;42.63;;;31.58;;
42430;SDS011;71905;47.466;19.024;2023-10-19T04:02:24;42.08;;;31.17;;
42430;SDS011;71905;47.466;19.024;2023-10-19T04:04:54;45.95;;;32.63;;
42430;SDS011;71905;47.466;19.024;2023-10-19T04:07:24;44.00;;;32.08;;
42430;SDS011;71905;47.466;19.024;2023-10-19T04:09:53;44.47;;;32.88;;
42430;SDS011;71905;47.466;19.024;2023-10-19T04:12:27;45.95;;;31.40;;
42430;SDS011;71905;47.466;19.024;2023-10-19T04:14:58;38.53;;;28.02;;
42430;SDS011;71905;47.466;19.024;2023-10-19T04:17:36;44.47;;;31.25;;
42430;SDS011;71905;47.466;19.024;2023-10-19T04:20:05;43.00;;;31.33;;
42430;SDS011;71905;47.466;19.024;2023-10-19T04:22:46;44.33;;;31.83;;
42430;SDS011;71905;47.466;19.024;2023-10-19T04:25:16;42.25;;;32.92;;
42430;SDS011;71905;47.466;19.024;2023-10-19T04:27:45;47.75;;;33.53;;
42430;SDS011;71905;47.466;19.024;2023-10-19T04:30:17;48.28;;;33.88;;
42430;SDS011;71905;47.466;19.024;2023-10-19T04:32:49;45.55;;;31.00;;
42430;SDS011;71905;47.466;19.024;2023-10-19T04:35:18;45.33;;;31.67;;
42430;SDS011;71905;47.466;19.024;2023-10-19T04:37:49;40.15;;;31.08;;
42430;SDS011;71905;47.466;19.024;2023-10-19T04:40:19;41.97;;;31.17;;
42430;SDS011;71905;47.466;19.024;2023-10-19T04:42:48;46.97;;;33.15;;
42430;SDS011;71905;47.466;19.024;2023-10-19T04:45:19;45.03;;;33.15;;
42430;SDS011;71905;47.466;19.024;2023-10-19T04:47:49;46.40;;;33.58;;
42430;SDS011;71905;47.466;19.024;2023-10-19T04:50:19;47.25;;;33.63;;
42430;SDS011;71905;47.466;19.024;2023-10-19T04:52:47;43.80;;;32.75;;
42430;SDS011;71905;47.466;19.024;2023-10-19T04:55:16;45.70;;;33.03;;
42430;SDS011;71905;47.466;19.024;2023-10-19T04:57:45;46.60;;;34.25;;
42430;SDS011;71905;47.466;19.024;2023-10-19T05:00:13;39.63;;;30.17;;
42430;SDS011;71905;47.466;19.024;2023-10-19T05:02:43;47.35;;;32.15;;
42430;SDS011;71905;47.466;19.024;2023-10-19T05:05:11;45.40;;;33.00;;
42430;SDS011;71905;47.466;19.024;2023-10-19T05:07:43;48.33;;;35.10;;
42430;SDS011;71905;47.466;19.024;2023-10-19T05:10:11;43.40;;;31.08;;
42430;SDS011;71905;47.466;19.024;2023-10-19T05:12:39;48.05;;;33.85;;
42430;SDS011;71905;47.466;19.024;2023-10-19T05:15:07;43.60;;;33.40;;
42430;SDS011;71905;47.466;19.024;2023-10-19T05:17:36;39.83;;;29.73;;
42430;SDS011;71905;47.466;19.024;2023-10-19T05:20:07;45.83;;;33.83;;
42430;SDS011;71905;47.466;19.024;2023-10-19T05:22:35;43.70;;;32.08;;
42430;SDS011;71905;47.466;19.024;2023-10-19T05:25:04;46.55;;;31.92;;
42430;SDS011;71905;47.466;19.024;2023-10-19T05:27:34;43.33;;;30.63;;
42430;SDS011;71905;47.466;19.024;2023-10-19T05:30:02;49.63;;;36.50;;
42430;SDS011;71905;47.466;19.024;2023-10-19T05:32:31;48.22;;;33.22;;
42430;SDS011;71905;47.466;19.024;2023-10-19T05:35:00;43.53;;;31.13;;
42430;SDS011;71905;47.466;19.024;2023-10-19T05:37:32;45.45;;;32.10;;
42430;SDS011;71905;47.466;19.024;2023-10-19T05:40:00;43.75;;;32.47;;
42430;SDS011;71905;47.466;19.024;2023-10-19T05:42:32;42.20;;;31.15;;
42430;SDS011;71905;47.466;19.024;2023-10-19T05:45:01;47.67;;;32.78;;
42430;SDS011;71905;47.466;19.024;2023-10-19T05:47:29;43.92;;;31.58;;
42430;SDS011;71905;47.466;19.024;2023-10-19T05:49:57;44.80;;;31.60;;
42430;SDS011;71905;47.466;19.024;2023-10-19T05:52:26;46.22;;;32.60;;
42430;SDS011;71905;47.466;19.024;2023-10-19T05:54:55;43.67;;;32.58;;
42430;SDS011;71905;47.466;19.024;2023-10-19T05:57:24;44.90;;;31.17;;
42430;SDS011;71905;47.466;19.024;2023-10-19T05:59:51;42.50;;;30.17;;
42430;SDS011;71905;47.466;19.024;2023-10-19T06:02:19;46.22;;;32.90;;
42430;SDS011;71905;47.466;19.024;2023-10-19T06:04:58;43.67;;;31.70;;
42430;SDS011;71905;47.466;19.024;2023-10-19T06:07:26;46.83;;;32.03;;
42430;SDS011;71905;47.466;19.024;2023-10-19T06:09:56;45.30;;;32.53;;
42430;SDS011;71905;47.466;19.024;2023-10-19T06:12:24;46.15;;;32.35;;
42430;SDS011;71905;47.466;19.024;2023-10-19T06:14:52;46.17;;;32.92;;
42430;SDS011;71905;47.466;19.024;2023-10-19T06:17:20;47.95;;;31.40;;
42430;SDS011;71905;47.466;19.024;2023-10-19T06:19:48;49.40;;;33.20;;
42430;SDS011;71905;47.466;19.024;2023-10-19T06:22:16;47.50;;;32.33;;
42430;SDS011;71905;47.466;19.024;2023-10-19T06:24:44;47.25;;;32.83;;
42430;SDS011;71905;47.466;19.024;2023-10-19T06:27:13;44.17;;;29.67;;
42430;SDS011;71905;47.466;19.024;2023-10-19T06:29:41;46.08;;;31.33;;
42430;SDS011;71905;47.466;19.024;2023-10-19T06:32:10;48.28;;;33.75;;
42430;SDS011;71905;47.466;19.024;2023-10-19T06:34:40;47.95;;;30.73;;
42430;SDS011;71905;47.466;19.024;2023-10-19T06:37:08;47.97;;;32.10;;
42430;SDS011;71905;47.466;19.024;2023-10-19T06:39:37;50.10;;;33.90;;
42430;SDS011;71905;47.466;19.024;2023-10-19T06:42:07;45.42;;;33.65;;
42430;SDS011;71905;47.466;19.024;2023-10-19T06:44:42;44.20;;;29.48;;
42430;SDS011;71905;47.466;19.024;2023-10-19T06:47:11;42.75;;;30.40;;
42430;SDS011;71905;47.466;19.024;2023-10-19T06:49:40;46.08;;;30.85;;
42430;SDS011;71905;47.466;19.024;2023-10-19T06:52:10;41.80;;;31.23;;
42430;SDS011;71905;47.466;19.024;2023-10-19T06:54:38;49.08;;;33.10;;
42430;SDS011;71905;47.466;19.024;2023-10-19T06:57:07;49.83;;;32.85;;
42430;SDS011;71905;47.466;19.024;2023-10-19T06:59:35;48.38;;;33.10;;
42430;SDS011;71905;47.466;19.024;2023-10-19T07:02:05;46.03;;;30.92;;
42430;SDS011;71905;47.466;19.024;2023-10-19T07:04:34;45.75;;;30.65;;
42430;SDS011;71905;47.466;19.024;2023-10-19T07:07:03;44.47;;;30.27;;
42430;SDS011;71905;47.466;19.024;2023-10-19T07:09:31;45.15;;;32.05;;
42430;SDS011;71905;47.466;19.024;2023-10-19T07:12:01;44.13;;;29.70;;
42430;SDS011;71905;47.466;19.024;2023-10-19T07:14:29;43.75;;;30.50;;
42430;SDS011;71905;47.466;19.024;2023-10-19T07:16:59;36.88;;;27.92;;
42430;SDS011;71905;47.466;19.024;2023-10-19T07:19:29;42.45;;;30.33;;
42430;SDS011;71905;47.466;19.024;2023-10-19T07:21:57;39.17;;;28.38;;
42430;SDS011;71905;47.466;19.024;2023-10-19T07:24:25;36.63;;;27.02;;
42430;SDS011;71905;47.466;19.024;2023-10-19T07:26:53;36.50;;;26.67;;
42430;SDS011;71905;47.466;19.024;2023-10-19T07:29:30;36.90;;;26.65;;
42430;SDS011;71905;47.466;19.024;2023-10-19T07:32:00;39.10;;;26.63;;
42430;SDS011;71905;47.466;19.024;2023-10-19T07:34:32;35.15;;;25.27;;
42430;SDS011;71905;47.466;19.024;2023-10-19T07:37:01;39.53;;;27.95;;
42430;SDS011;71905;47.466;19.024;2023-10-19T07:39:30;36.42;;;27.10;;
42430;SDS011;71905;47.466;19.024;2023-10-19T07:42:00;33.97;;;26.08;;
42430;SDS011;71905;47.466;19.024;2023-10-19T07:44:33;37.00;;;24.98;;
42430;SDS011;71905;47.466;19.024;2023-10-19T07:47:01;32.17;;;23.77;;
42430;SDS011;71905;47.466;19.024;2023-10-19T07:49:29;35.83;;;26.13;;
42430;SDS011;71905;47.466;19.024;2023-10-19T07:51:58;33.90;;;26.10;;
42430;SDS011;71905;47.466;19.024;2023-10-19T07:54:27;33.53;;;25.08;;
42430;SDS011;71905;47.466;19.024;2023-10-19T07:56:55;32.38;;;23.33;;
42430;SDS011;71905;47.466;19.024;2023-10-19T07:59:24;30.05;;;24.13;;
42430;SDS011;71905;47.466;19.024;2023-10-19T08:01:54;31.60;;;24.15;;
42430;SDS011;71905;47.466;19.024;2023-10-19T08:04:40;32.65;;;23.88;;
42430;SDS011;71905;47.466;19.024;2023-10-19T08:07:10;34.78;;;25.27;;
42430;SDS011;71905;47.466;19.024;2023-10-19T08:09:38;31.83;;;22.98;;
42430;SDS011;71905;47.466;19.024;2023-10-19T08:12:06;32.90;;;24.15;;
42430;SDS011;71905;47.466;19.024;2023-10-19T08:14:36;29.92;;;22.50;;
42430;SDS011;71905;47.466;19.024;2023-10-19T08:17:04;29.85;;;22.20;;
42430;SDS011;71905;47.466;19.024;2023-10-19T08:19:35;28.80;;;22.33;;
42430;SDS011;71905;47.466;19.024;2023-10-19T08:22:03;36.15;;;24.52;;
42430;SDS011;71905;47.466;19.024;2023-10-19T08:24:33;32.50;;;23.67;;
42430;SDS011;71905;47.466;19.024;2023-10-19T08:27:01;29.77;;;21.40;;
42430;SDS011;71905;47.466;19.024;2023-10-19T08:29:31;30.10;;;23.48;;
42430;SDS011;71905;47.466;19.024;2023-10-19T08:32:02;30.20;;;22.77;;
42430;SDS011;71905;47.466;19.024;2023-10-19T08:34:33;33.45;;;24.88;;
42430;SDS011;71905;47.466;19.024;2023-10-19T08:37:02;37.55;;;25.48;;
42430;SDS011;71905;47.466;19.024;2023-10-19T08:39:32;34.00;;;24.45;;
42430;SDS011;71905;47.466;19.024;2023-10-19T08:42:02;29.50;;;22.23;;
42430;SDS011;71905;47.466;19.024;2023-10-19T08:44:31;32.35;;;23.77;;
42430;SDS011;71905;47.466;19.024;2023-10-19T08:46:59;36.55;;;24.98;;
42430;SDS011;71905;47.466;19.024;2023-10-19T08:49:28;27.67;;;22.40;;
42430;SDS011;71905;47.466;19.024;2023-10-19T08:51:56;29.83;;;22.20;;
42430;SDS011;71905;47.466;19.024;2023-10-19T08:54:26;30.35;;;22.83;;
42430;SDS011;71905;47.466;19.024;2023-10-19T08:56:56;30.48;;;22.23;;
42430;SDS011;71905;47.466;19.024;2023-10-19T08:59:26;29.90;;;22.17;;
42430;SDS011;71905;47.466;19.024;2023-10-19T09:01:59;33.10;;;24.10;;
42430;SDS011;71905;47.466;19.024;2023-10-19T09:04:29;31.65;;;22.52;;
42430;SDS011;71905;47.466;19.024;2023-10-19T09:06:57;35.53;;;25.08;;
42430;SDS011;71905;47.466;19.024;2023-10-19T09:09:26;36.28;;;24.50;;
42430;SDS011;71905;47.466;19.024;2023-10-19T09:12:00;34.75;;;23.98;;
42430;SDS011;71905;47.466;19.024;2023-10-19T09:14:33;34.55;;;22.60;;
42430;SDS011;71905;47.466;19.024;2023-10-19T09:17:02;38.80;;;25.20;;
42430;SDS011;71905;47.466;19.024;2023-10-19T09:19:36;37.13;;;26.25;;
42430;SDS011;71905;47.466;19.024;2023-10-19T09:22:05;35.55;;;25.20;;
42430;SDS011;71905;47.466;19.024;2023-10-19T09:24:43;33.20;;;26.40;;
42430;SDS011;71905;47.466;19.024;2023-10-19T09:27:16;34.92;;;25.92;;
42430;SDS011;71905;47.466;19.024;2023-10-19T09:29:44;36.60;;;25.20;;
42430;SDS011;71905;47.466;19.024;2023-10-19T09:32:13;37.35;;;26.52;;
42430;SDS011;71905;47.466;19.024;2023-10-19T09:34:43;31.30;;;23.50;;
42430;SDS011;71905;47.466;19.024;2023-10-19T09:37:14;35.92;;;25.10;;
42430;SDS011;71905;47.466;19.024;2023-10-19T09:39:44;34.63;;;24.35;;
42430;SDS011;71905;47.466;19.024;2023-10-19T09:42:12;33.05;;;23.60;;
42430;SDS011;71905;47.466;19.024;2023-10-19T09:44:44;29.88;;;22.75;;
42430;SDS011;71905;47.466;19.024;2023-10-19T09:47:17;31.92;;;22.67;;
42430;SDS011;71905;47.466;19.024;2023-10-19T09:49:54;35.13;;;25.75;;
42430;SDS011;71905;47.466;19.024;2023-10-19T09:52:22;32.33;;;24.80;;
42430;SDS011;71905;47.466;19.024;2023-10-19T09:54:54;33.60;;;26.38;;
42430;SDS011;71905;47.466;19.024;2023-10-19T09:57:31;32.55;;;24.80;;
42430;SDS011;71905;47.466;19.024;2023-10-19T10:00:03;31.10;;;24.08;;
42430;SDS011;71905;47.466;19.024;2023-10-19T10:02:39;38.95;;;26.70;;
42430;SDS011;71905;47.466;19.024;2023-10-19T10:08:30;34.85;;;24.80;;
42430;SDS011;71905;47.466;19.024;2023-10-19T10:11:01;33.47;;;24.38;;
42430;SDS011;71905;47.466;19.024;2023-10-19T10:13:44;41.83;;;27.95;;
42430;SDS011;71905;47.466;19.024;2023-10-19T10:16:18;33.92;;;24.83;;
42430;SDS011;71905;47.466;19.024;2023-10-19T10:18:47;31.35;;;24.60;;
42430;SDS011;71905;47.466;19.024;2023-10-19T10:21:18;33.00;;;25.02;;
42430;SDS011;71905;47.466;19.024;2023-10-19T10:23:48;35.85;;;26.50;;
42430;SDS011;71905;47.466;19.024;2023-10-19T10:26:17;36.08;;;26.10;;
42430;SDS011;71905;47.466;19.024;2023-10-19T10:28:48;34.72;;;25.95;;
42430;SDS011;71905;47.466;19.024;2023-10-19T10:31:40;34.20;;;26.58;;
42430;SDS011;71905;47.466;19.024;2023-10-19T10:34:09;34.75;;;26.73;;
42430;SDS011;71905;47.466;19.024;2023-10-19T10:39:29;35.72;;;26.50;;
42430;SDS011;71905;47.466;19.024;2023-10-19T10:41:58;36.95;;;26.33;;
42430;SDS011;71905;47.466;19.024;2023-10-19T10:44:37;36.72;;;26.92;;
42430;SDS011;71905;47.466;19.024;2023-10-19T10:47:07;34.78;;;26.27;;
42430;SDS011;71905;47.466;19.024;2023-10-19T10:49:46;35.85;;;25.73;;
42430;SDS011;71905;47.466;19.024;2023-10-19T10:52:26;39.30;;;28.83;;
42430;SDS011;71905;47.466;19.024;2023-10-19T10:54:56;35.25;;;26.95;;
42430;SDS011;71905;47.466;19.024;2023-10-19T10:57:34;35.95;;;26.92;;
42430;SDS011;71905;47.466;19.024;2023-10-19T11:00:05;38.58;;;25.55;;
42430;SDS011;71905;47.466;19.024;2023-10-19T11:02:36;31.75;;;25.15;;
42430;SDS011;71905;47.466;19.024;2023-10-19T11:05:10;33.42;;;24.77;;
42430;SDS011;71905;47.466;19.024;2023-10-19T11:07:39;36.58;;;25.73;;
42430;SDS011;71905;47.466;19.024;2023-10-19T11:10:08;33.15;;;25.77;;
42430;SDS011;71905;47.466;19.024;2023-10-19T11:12:36;33.72;;;26.08;;
42430;SDS011;71905;47.466;19.024;2023-10-19T11:15:06;36.15;;;25.55;;
42430;SDS011;71905;47.466;19.024;2023-10-19T11:17:42;36.85;;;26.13;;
42430;SDS011;71905;47.466;19.024;2023-10-19T11:20:20;31.45;;;24.98;;
42430;SDS011;71905;47.466;19.024;2023-10-19T11:22:49;33.13;;;25.00;;
42430;SDS011;71905;47.466;19.024;2023-10-19T11:25:18;36.90;;;26.45;;
42430;SDS011;71905;47.466;19.024;2023-10-19T11:27:47;32.50;;;23.80;;
42430;SDS011;71905;47.466;19.024;2023-10-19T11:30:23;34.75;;;25.40;;
42430;SDS011;71905;47.466;19.024;2023-10-19T11:32:52;34.08;;;24.42;;
42430;SDS011;71905;47.466;19.024;2023-10-19T11:35:24;32.63;;;24.88;;
42430;SDS011;71905;47.466;19.024;2023-10-19T11:37:52;32.53;;;23.92;;
42430;SDS011;71905;47.466;19.024;2023-10-19T11:40:22;31.85;;;24.20;;
42430;SDS011;71905;47.466;19.024;2023-10-19T11:42:51;35.85;;;25.92;;
42430;SDS011;71905;47.466;19.024;2023-10-19T11:45:24;32.25;;;25.27;;
42430;SDS011;71905;47.466;19.024;2023-10-19T11:47:52;36.00;;;24.50;;
42430;SDS011;71905;47.466;19.024;2023-10-19T11:50:21;33.38;;;24.90;;
42430;SDS011;71905;47.466;19.024;2023-10-19T11:52:51;39.03;;;26.35;;
42430;SDS011;71905;47.466;19.024;2023-10-19T11:55:20;37.90;;;25.55;;
42430;SDS011;71905;47.466;19.024;2023-10-19T11:57:48;35.83;;;25.25;;
42430;SDS011;71905;47.466;19.024;2023-10-19T12:00:16;34.67;;;26.80;;
42430;SDS011;71905;47.466;19.024;2023-10-19T12:02:50;36.33;;;27.05;;
42430;SDS011;71905;47.466;19.024;2023-10-19T12:05:19;36.10;;;27.25;;
42430;SDS011;71905;47.466;19.024;2023-10-19T12:07:48;35.13;;;26.63;;
42430;SDS011;71905;47.466;19.024;2023-10-19T12:10:16;36.35;;;27.35;;
42430;SDS011;71905;47.466;19.024;2023-10-19T12:12:46;35.83;;;26.77;;
42430;SDS011;71905;47.466;19.024;2023-10-19T12:15:27;38.88;;;26.23;;
42430;SDS011;71905;47.466;19.024;2023-10-19T12:17:57;35.45;;;27.02;;
42430;SDS011;71905;47.466;19.024;2023-10-19T12:20:26;35.78;;;27.77;;
42430;SDS011;71905;47.466;19.024;2023-10-19T12:22:54;38.70;;;26.77;;
42430;SDS011;71905;47.466;19.024;2023-10-19T12:25:22;34.85;;;27.60;;
42430;SDS011;71905;47.466;19.024;2023-10-19T12:28:08;38.85;;;28.17;;
42430;SDS011;71905;47.466;19.024;2023-10-19T12:30:40;35.20;;;26.75;;
42430;SDS011;71905;47.466;19.024;2023-10-19T12:33:10;40.40;;;29.10;;
42430;SDS011;71905;47.466;19.024;2023-10-19T12:35:39;38.75;;;27.92;;
42430;SDS011;71905;47.466;19.024;2023-10-19T12:38:20;36.55;;;26.88;;
42430;SDS011;71905;47.466;19.024;2023-10-19T12:40:48;38.30;;;28.10;;
42430;SDS011;71905;47.466;19.024;2023-10-19T12:43:18;38.35;;;28.08;;
42430;SDS011;71905;47.466;19.024;2023-10-19T12:45:48;40.10;;;28.77;;
42430;SDS011;71905;47.466;19.024;2023-10-19T12:48:22;36.78;;;27.73;;
42430;SDS011;71905;47.466;19.024;2023-10-19T12:50:52;36.53;;;27.75;;
42430;SDS011;71905;47.466;19.024;2023-10-19T12:53:21;38.17;;;27.88;;
42430;SDS011;71905;47.466;19.024;2023-10-19T12:55:51;37.63;;;27.58;;
42430;SDS011;71905;47.466;19.024;2023-10-19T12:58:20;35.22;;;26.50;;
42430;SDS011;71905;47.466;19.024;2023-10-19T13:00:48;38.40;;;29.40;;
42430;SDS011;71905;47.466;19.024;2023-10-19T13:03:16;40.25;;;28.67;;
42430;SDS011;71905;47.466;19.024;2023-10-19T13:05:46;35.90;;;26.20;;
42430;SDS011;71905;47.466;19.024;2023-10-19T13:08:16;39.65;;;29.77;;
42430;SDS011;71905;47.466;19.024;2023-10-19T13:10:46;43.03;;;30.10;;
42430;SDS011;71905;47.466;19.024;2023-10-19T13:13:18;40.65;;;30.30;;
42430;SDS011;71905;47.466;19.024;2023-10-19T13:15:50;45.20;;;31.10;;
42430;SDS011;71905;47.466;19.024;2023-10-19T13:18:20;43.95;;;29.27;;
42430;SDS011;71905;47.466;19.024;2023-10-19T13:20:55;41.67;;;28.92;;
42430;SDS011;71905;47.466;19.024;2023-10-19T13:23:25;46.63;;;32.35;;
42430;SDS011;71905;47.466;19.024;2023-10-19T13:25:54;43.53;;;29.92;;
42430;SDS011;71905;47.466;19.024;2023-10-19T13:28:28;45.60;;;30.83;;
42430;SDS011;71905;47.466;19.024;2023-10-19T13:30:56;41.15;;;29.27;;
42430;SDS011;71905;47.466;19.024;2023-10-19T13:33:24;39.97;;;29.98;;
42430;SDS011;71905;47.466;19.024;2023-10-19T13:35:52;45.53;;;30.45;;
42430;SDS011;71905;47.466;19.024;2023-10-19T13:38:22;39.55;;;29.00;;
42430;SDS011;71905;47.466;19.024;2023-10-19T13:40:50;37.60;;;29.40;;
42430;SDS011;71905;47.466;19.024;2023-10-19T13:43:19;38.83;;;30.70;;
42430;SDS011;71905;47.466;19.024;2023-10-19T13:45:48;39.97;;;30.83;;
42430;SDS011;71905;47.466;19.024;2023-10-19T13:48:18;44.25;;;32.85;;
42430;SDS011;71905;47.466;19.024;2023-10-19T13:50:47;45.08;;;31.42;;
42430;SDS011;71905;47.466;19.024;2023-10-19T13:53:16;42.45;;;31.92;;
42430;SDS011;71905;47.466;19.024;2023-10-19T13:55:45;44.45;;;32.42;;
42430;SDS011;71905;47.466;19.024;2023-10-19T13:58:14;40.00;;;31.45;;
42430;SDS011;71905;47.466;19.024;2023-10-19T14:00:42;42.95;;;30.02;;
42430;SDS011;71905;47.466;19.024;2023-10-19T14:03:11;38.28;;;29.60;;
42430;SDS011;71905;47.466;19.024;2023-10-19T14:05:41;46.85;;;32.90;;
42430;SDS011;71905;47.466;19.024;2023-10-19T14:08:15;41.88;;;32.17;;
42430;SDS011;71905;47.466;19.024;2023-10-19T14:10:46;39.03;;;30.60;;
42430;SDS011;71905;47.466;19.024;2023-10-19T14:13:14;39.35;;;29.55;;
42430;SDS011;71905;47.466;19.024;2023-10-19T14:15:42;39.42;;;30.17;;
42430;SDS011;71905;47.466;19.024;2023-10-19T14:18:10;41.33;;;31.85;;
42430;SDS011;71905;47.466;19.024;2023-10-19T14:20:39;39.53;;;29.08;;
42430;SDS011;71905;47.466;19.024;2023-10-19T14:23:07;45.95;;;33.30;;
42430;SDS011;71905;47.466;19.024;2023-10-19T14:25:37;47.47;;;32.65;;
42430;SDS011;71905;47.466;19.024;2023-10-19T14:28:08;43.47;;;31.70;;
42430;SDS011;71905;47.466;19.024;2023-10-19T14:30:36;40.85;;;31.65;;
42430;SDS011;71905;47.466;19.024;2023-10-19T14:33:04;48.97;;;32.80;;